createdAt,value
2018-09-23T00:01:23.076Z,62.73
2018-09-23T00:03:50.491Z,51.93
2018-09-23T00:06:18.043Z,51.83
2018-09-23T00:08:45.465Z,41.03
2018-09-23T00:11:12.917Z,44.13
2018-09-23T00:13:40.328Z,38.13
2018-09-23T00:16:07.763Z,32.50
2018-09-23T00:18:35.182Z,27.33
2018-09-23T00:21:02.644Z,26.87
2018-09-23T00:23:30.060Z,21.30
2018-09-23T00:25:57.516Z,28.73
2018-09-23T00:28:24.924Z,29.50
2018-09-23T00:30:52.363Z,34.40
2018-09-23T00:33:20.057Z,38.23
2018-09-23T00:35:47.468Z,31.03
2018-09-23T00:38:14.902Z,46.13
2018-09-23T00:40:42.322Z,36.73
2018-09-23T00:43:09.774Z,37.23
2018-09-23T00:45:37.197Z,40.20
2018-09-23T00:48:04.638Z,44.93
2018-09-23T00:50:32.103Z,36.73
2018-09-23T00:52:59.581Z,49.47
2018-09-23T00:55:26.964Z,48.60
2018-09-23T00:57:54.370Z,53.20
2018-09-23T01:00:21.821Z,43.50
2018-09-23T01:02:49.250Z,51.93
2018-09-23T01:05:16.682Z,44.60
2018-09-23T01:07:44.099Z,38.33
2018-09-23T01:10:11.530Z,34.47
2018-09-23T01:12:38.950Z,39.37
2018-09-23T01:15:06.384Z,36.50
2018-09-23T01:17:33.794Z,37.47
2018-09-23T01:20:01.236Z,35.17
2018-09-23T01:22:28.663Z,40.20
2018-09-23T01:24:56.123Z,41.30
2018-09-23T01:27:23.540Z,40.03
2018-09-23T01:29:50.988Z,34.57
2018-09-23T01:32:18.423Z,41.77
2018-09-23T01:34:45.854Z,38.47
2018-09-23T01:37:13.270Z,42.40
2018-09-23T01:39:40.720Z,33.43
2018-09-23T01:42:08.145Z,31.53
2018-09-23T01:44:35.582Z,32.63
2018-09-23T01:47:03.043Z,33.20
2018-09-23T01:49:30.468Z,33.03
2018-09-23T01:51:57.938Z,30.43
2018-09-23T01:54:25.365Z,26.10
2018-09-23T01:56:52.804Z,28.27
2018-09-23T01:59:20.226Z,33.00
2018-09-23T02:01:47.684Z,26.93
2018-09-23T02:04:15.114Z,24.53
2018-09-23T02:06:42.590Z,24.90
2018-09-23T02:09:10.030Z,21.23
2018-09-23T02:11:37.447Z,21.07
2018-09-23T02:14:04.888Z,22.50
2018-09-23T02:16:32.297Z,22.63
2018-09-23T02:18:59.742Z,20.10
2018-09-23T02:21:27.178Z,22.67
2018-09-23T02:23:54.614Z,19.17
2018-09-23T02:26:22.067Z,21.00
2018-09-23T02:28:49.512Z,22.20
2018-09-23T02:31:16.944Z,24.97
2018-09-23T02:33:44.363Z,23.73
2018-09-23T02:36:11.805Z,33.43
2018-09-23T02:38:39.257Z,25.07
2018-09-23T02:41:06.695Z,26.50
2018-09-23T02:43:34.162Z,29.80
2018-09-23T02:46:01.578Z,34.10
2018-09-23T02:48:29.028Z,22.87
2018-09-23T02:50:56.436Z,22.60
2018-09-23T02:53:23.859Z,25.27
2018-09-23T02:55:51.296Z,22.27
2018-09-23T02:58:18.724Z,24.53
2018-09-23T03:00:46.181Z,26.03
2018-09-23T03:03:13.677Z,24.70
2018-09-23T03:05:41.124Z,25.73
2018-09-23T03:08:08.559Z,24.57
2018-09-23T03:10:35.989Z,19.83
2018-09-23T03:13:03.447Z,22.93
2018-09-23T03:15:30.880Z,24.50
2018-09-23T03:17:58.332Z,23.57
2018-09-23T03:20:25.771Z,18.87
2018-09-23T03:22:53.203Z,21.07
2018-09-23T03:25:20.628Z,24.00
2018-09-23T03:27:48.073Z,20.13
2018-09-23T03:30:15.483Z,20.17
2018-09-23T03:32:42.940Z,18.67
2018-09-23T03:35:10.383Z,19.53
2018-09-23T03:37:37.825Z,17.83
2018-09-23T03:40:05.251Z,16.97
2018-09-23T03:42:32.979Z,19.33
2018-09-23T03:45:00.390Z,19.87
2018-09-23T03:47:27.818Z,21.97
2018-09-23T03:49:55.280Z,18.77
2018-09-23T03:52:22.696Z,19.23
2018-09-23T03:54:50.188Z,19.90
2018-09-23T03:57:17.597Z,21.63
2018-09-23T03:59:45.086Z,25.90
2018-09-23T04:02:12.513Z,29.40
2018-09-23T04:04:40.069Z,20.63
2018-09-23T04:07:07.540Z,23.60
2018-09-23T04:09:34.955Z,26.30
2018-09-23T04:12:02.507Z,22.30
2018-09-23T04:14:29.850Z,22.70
2018-09-23T04:16:57.314Z,21.33
2018-09-23T04:19:24.760Z,19.33
2018-09-23T04:21:52.186Z,25.73
2018-09-23T04:24:19.600Z,27.33
2018-09-23T04:26:47.050Z,29.67
2018-09-23T04:29:14.495Z,22.50
2018-09-23T04:31:41.946Z,23.43
2018-09-23T04:34:09.373Z,23.63
2018-09-23T04:36:36.816Z,25.50
2018-09-23T04:39:04.229Z,27.93
2018-09-23T04:41:31.663Z,23.17
2018-09-23T04:43:59.086Z,26.60
2018-09-23T04:46:26.518Z,26.00
2018-09-23T04:48:53.919Z,25.40
2018-09-23T04:51:21.359Z,24.67
2018-09-23T04:53:48.765Z,26.47
2018-09-23T04:56:16.212Z,24.13
2018-09-23T04:58:43.640Z,27.43
2018-09-23T05:01:11.074Z,39.57
2018-09-23T05:03:38.510Z,34.83
2018-09-23T05:06:05.949Z,34.80
2018-09-23T05:08:33.388Z,32.07
2018-09-23T05:11:00.807Z,39.33
2018-09-23T05:13:28.242Z,35.23
2018-09-23T05:15:55.650Z,28.53
2018-09-23T05:18:23.089Z,33.57
2018-09-23T05:20:50.501Z,31.03
2018-09-23T05:23:17.963Z,26.17
2018-09-23T05:25:45.409Z,33.23
2018-09-23T05:28:12.859Z,25.60
2018-09-23T05:30:40.289Z,26.87
2018-09-23T05:33:07.717Z,24.00
2018-09-23T05:35:35.142Z,27.03
2018-09-23T05:38:02.558Z,22.73
2018-09-23T05:40:29.992Z,29.50
2018-09-23T05:42:57.400Z,20.27
2018-09-23T05:45:24.842Z,26.13
2018-09-23T05:47:52.253Z,20.97
2018-09-23T05:50:19.670Z,24.67
2018-09-23T05:52:47.115Z,24.60
2018-09-23T05:55:14.546Z,23.33
2018-09-23T05:57:41.967Z,31.53
2018-09-23T06:00:09.406Z,25.20
2018-09-23T06:02:36.814Z,33.23
2018-09-23T06:05:04.251Z,26.37
2018-09-23T06:07:31.706Z,25.37
2018-09-23T06:09:59.134Z,34.67
2018-09-23T06:12:26.535Z,32.80
2018-09-23T06:14:53.977Z,22.87
2018-09-23T06:17:21.414Z,35.30
2018-09-23T06:19:48.803Z,26.87
2018-09-23T06:22:16.246Z,22.67
2018-09-23T06:24:43.677Z,24.97
2018-09-23T06:27:11.107Z,24.37
2018-09-23T06:29:38.550Z,26.50
2018-09-23T06:32:05.971Z,20.63
2018-09-23T06:34:33.390Z,24.40
2018-09-23T06:37:00.882Z,19.83
2018-09-23T06:39:28.295Z,22.43
2018-09-23T06:41:55.746Z,20.70
2018-09-23T06:44:23.168Z,18.40
2018-09-23T06:46:50.625Z,18.20
2018-09-23T06:49:18.056Z,29.60
2018-09-23T06:51:45.516Z,22.37
2018-09-23T06:54:12.931Z,38.00
2018-09-23T06:56:40.405Z,27.37
2018-09-23T06:59:07.908Z,18.27
2018-09-23T07:01:35.292Z,26.53
2018-09-23T07:04:02.699Z,20.03
2018-09-23T07:06:30.132Z,19.80
2018-09-23T07:08:57.545Z,20.07
2018-09-23T07:11:25.027Z,24.37
2018-09-23T07:13:52.450Z,21.80
2018-09-23T07:16:19.872Z,27.30
2018-09-23T07:18:47.322Z,24.03
2018-09-23T07:21:14.743Z,28.10
2018-09-23T07:23:42.246Z,27.37
2018-09-23T07:26:09.588Z,20.30
2018-09-23T07:28:37.055Z,22.63
2018-09-23T07:31:04.488Z,22.60
2018-09-23T07:33:31.953Z,26.27
2018-09-23T07:35:59.362Z,19.00
2018-09-23T07:38:26.807Z,22.13
2018-09-23T07:40:54.213Z,19.30
2018-09-23T07:43:21.649Z,17.10
2018-09-23T07:45:49.070Z,14.87
2018-09-23T07:48:16.467Z,15.73
2018-09-23T07:50:43.912Z,18.93
2018-09-23T07:53:11.346Z,16.07
2018-09-23T07:55:38.765Z,15.03
2018-09-23T07:58:06.209Z,12.83
2018-09-23T08:00:33.638Z,16.20
2018-09-23T08:03:01.059Z,17.80
2018-09-23T08:05:28.507Z,13.73
2018-09-23T08:07:55.917Z,14.07
2018-09-23T08:10:23.348Z,11.57
2018-09-23T08:12:50.983Z,12.93
2018-09-23T08:15:18.177Z,12.60
2018-09-23T08:17:45.625Z,11.77
2018-09-23T08:20:13.167Z,16.30
2018-09-23T08:22:40.500Z,15.10
2018-09-23T08:25:07.949Z,15.07
2018-09-23T08:27:35.356Z,15.00
2018-09-23T08:30:02.808Z,13.17
2018-09-23T08:32:30.209Z,11.03
2018-09-23T08:34:57.632Z,14.90
2018-09-23T08:37:25.313Z,12.90
2018-09-23T08:39:52.572Z,15.10
2018-09-23T08:42:19.981Z,13.37
2018-09-23T08:44:47.432Z,13.27
2018-09-23T08:47:14.873Z,13.33
2018-09-23T08:49:42.285Z,12.17
2018-09-23T08:52:09.772Z,10.63
2018-09-23T08:54:37.260Z,10.23
2018-09-23T08:57:04.674Z,10.87
2018-09-23T08:59:32.143Z,9.07
2018-09-23T09:01:59.547Z,8.63
2018-09-23T09:04:26.981Z,11.00
2018-09-23T09:06:54.403Z,10.07
2018-09-23T09:09:21.993Z,9.03
2018-09-23T09:11:49.487Z,12.17
2018-09-23T09:14:16.863Z,10.07
2018-09-23T09:16:44.288Z,9.13
2018-09-23T09:19:11.717Z,11.00
2018-09-23T09:21:39.125Z,9.77
2018-09-23T09:24:06.584Z,10.23
2018-09-23T09:26:34.037Z,10.90
2018-09-23T09:29:01.405Z,9.00
2018-09-23T09:31:28.843Z,10.53
2018-09-23T09:33:56.253Z,11.90
2018-09-23T09:36:23.693Z,11.40
2018-09-23T09:38:51.097Z,11.03
2018-09-23T09:41:18.528Z,12.40
2018-09-23T09:43:46.897Z,12.83
2018-09-23T09:46:14.327Z,11.83
2018-09-23T09:48:41.745Z,10.80
2018-09-23T09:51:09.183Z,17.17
2018-09-23T09:53:36.598Z,17.47
2018-09-23T09:56:04.047Z,15.57
2018-09-23T09:58:31.464Z,14.20
2018-09-23T10:00:58.920Z,12.10
2018-09-23T10:03:27.377Z,9.43
2018-09-23T10:05:54.797Z,18.77
2018-09-23T10:08:22.238Z,14.17
2018-09-23T10:10:49.676Z,12.00
2018-09-23T10:13:17.101Z,15.53
2018-09-23T10:15:44.531Z,16.17
2018-09-23T10:18:12.292Z,16.73
2018-09-23T10:20:39.706Z,13.50
2018-09-23T10:23:07.230Z,10.67
2018-09-23T10:25:34.559Z,11.07
2018-09-23T10:28:02.015Z,10.60
2018-09-23T10:30:29.444Z,12.70
2018-09-23T10:32:56.876Z,11.03
2018-09-23T10:35:24.294Z,12.07
2018-09-23T10:37:51.709Z,12.23
2018-09-23T10:40:19.160Z,12.30
2018-09-23T10:42:46.597Z,14.23
2018-09-23T10:45:14.031Z,16.50
2018-09-23T10:47:41.445Z,13.83
2018-09-23T10:50:08.890Z,11.77
2018-09-23T10:52:36.319Z,12.87
2018-09-23T10:55:03.758Z,11.27
2018-09-23T10:57:31.201Z,12.30
2018-09-23T10:59:58.678Z,11.07
2018-09-23T11:02:26.107Z,18.47
2018-09-23T11:04:53.577Z,16.53
2018-09-23T11:07:21.099Z,13.27
2018-09-23T11:09:48.583Z,17.27
2018-09-23T11:12:16.010Z,16.47
2018-09-23T11:14:43.451Z,15.03
2018-09-23T11:17:10.884Z,18.53
2018-09-23T11:19:38.328Z,14.03
2018-09-23T11:22:05.782Z,14.27
2018-09-23T11:24:33.174Z,13.70
2018-09-23T11:27:00.622Z,15.20
2018-09-23T11:29:28.037Z,12.87
2018-09-23T11:31:55.481Z,11.77
2018-09-23T11:34:24.037Z,9.80
2018-09-23T11:36:51.459Z,9.03
2018-09-23T11:39:18.871Z,7.10
2018-09-23T11:41:46.294Z,8.10
2018-09-23T11:44:13.713Z,5.97
2018-09-23T11:46:41.167Z,5.87
2018-09-23T11:49:08.606Z,6.07
2018-09-23T11:51:36.035Z,5.33
2018-09-23T11:54:03.444Z,5.57
2018-09-23T11:56:30.899Z,4.40
2018-09-23T11:58:58.333Z,6.33
2018-09-23T12:01:26.676Z,4.47
2018-09-23T12:03:54.302Z,5.40
2018-09-23T12:06:21.733Z,4.57
2018-09-23T12:08:49.142Z,6.57
2018-09-23T12:11:16.651Z,4.23
2018-09-23T12:13:44.095Z,5.77
2018-09-23T12:16:11.523Z,8.20
2018-09-23T12:18:39.000Z,8.77
2018-09-23T12:21:07.038Z,4.70
2018-09-23T12:23:34.620Z,5.80
2018-09-23T12:26:02.031Z,4.83
2018-09-23T12:28:29.515Z,5.57
2018-09-23T12:30:56.989Z,4.50
2018-09-23T12:33:24.451Z,6.13
2018-09-23T12:35:51.823Z,6.37
2018-09-23T12:38:19.258Z,6.33
2018-09-23T12:40:46.774Z,7.67
2018-09-23T12:43:14.179Z,6.17
2018-09-23T12:45:41.660Z,5.70
2018-09-23T12:48:09.079Z,6.63
2018-09-23T12:50:36.509Z,7.23
2018-09-23T12:53:04.000Z,7.57
2018-09-23T12:55:31.430Z,7.90
2018-09-23T12:57:58.869Z,8.57
2018-09-23T13:00:26.330Z,8.80
2018-09-23T13:02:53.736Z,9.57
2018-09-23T13:05:21.169Z,9.90
2018-09-23T13:07:48.596Z,9.83
2018-09-23T13:10:16.184Z,9.30
2018-09-23T13:12:43.643Z,10.90
2018-09-23T13:15:11.021Z,10.50
2018-09-23T13:17:38.563Z,11.03
2018-09-23T13:20:06.000Z,9.00
2018-09-23T13:22:34.097Z,10.67
2018-09-23T13:25:02.901Z,9.67
2018-09-23T13:27:30.332Z,11.13
2018-09-23T13:29:57.775Z,10.47
2018-09-23T13:32:25.183Z,10.70
2018-09-23T13:34:52.680Z,10.93
2018-09-23T13:37:20.119Z,10.13
2018-09-23T13:39:47.542Z,9.60
2018-09-23T13:42:14.969Z,10.40
2018-09-23T13:44:42.494Z,10.67
2018-09-23T13:47:09.935Z,9.60
2018-09-23T13:49:37.354Z,10.73
2018-09-23T13:52:04.805Z,11.20
2018-09-23T13:54:32.349Z,11.83
2018-09-23T13:56:59.679Z,12.17
2018-09-23T13:59:27.152Z,10.00
2018-09-23T14:01:54.599Z,10.83
2018-09-23T14:04:22.068Z,10.33
2018-09-23T14:06:49.499Z,9.77
2018-09-23T14:09:16.955Z,11.00
2018-09-23T14:11:44.371Z,10.60
2018-09-23T14:14:11.818Z,11.17
2018-09-23T14:16:39.251Z,11.57
2018-09-23T14:19:06.712Z,10.87
2018-09-23T14:21:34.142Z,9.83
2018-09-23T14:24:01.591Z,11.20
2018-09-23T14:26:29.102Z,8.87
2018-09-23T14:28:56.524Z,7.03
2018-09-23T14:31:23.973Z,7.30
2018-09-23T14:33:51.379Z,8.27
2018-09-23T14:36:18.926Z,7.27
2018-09-23T14:38:46.271Z,8.20
2018-09-23T14:41:13.713Z,7.53
2018-09-23T14:43:41.165Z,7.30
2018-09-23T14:46:08.595Z,7.37
2018-09-23T14:48:36.020Z,8.70
2018-09-23T14:51:03.524Z,8.70
2018-09-23T14:53:30.993Z,8.13
2018-09-23T14:55:58.407Z,8.33
2018-09-23T14:58:25.841Z,7.50
2018-09-23T15:00:53.268Z,7.60
2018-09-23T15:03:20.713Z,7.17
2018-09-23T15:05:48.151Z,6.33
2018-09-23T15:08:15.642Z,5.90
2018-09-23T15:10:43.040Z,7.70
2018-09-23T15:13:10.486Z,6.63
2018-09-23T15:15:37.948Z,7.40
2018-09-23T15:18:05.374Z,6.37
2018-09-23T15:20:32.792Z,7.67
2018-09-23T15:23:00.256Z,7.60
2018-09-23T15:25:27.661Z,13.67
2018-09-23T15:27:55.127Z,9.43
2018-09-23T15:30:22.561Z,8.90
2018-09-23T15:32:50.013Z,9.03
2018-09-23T15:35:17.482Z,9.63
2018-09-23T15:37:44.908Z,10.50
2018-09-23T15:40:12.421Z,10.67
2018-09-23T15:42:39.878Z,10.80
2018-09-23T15:45:07.245Z,9.83
2018-09-23T15:47:34.759Z,8.60
2018-09-23T15:50:02.175Z,9.53
2018-09-23T15:52:29.664Z,11.03
2018-09-23T15:54:57.109Z,10.70
2018-09-23T15:57:24.527Z,8.37
2018-09-23T15:59:52.033Z,7.50
2018-09-23T16:02:19.470Z,7.47
2018-09-23T16:04:46.890Z,7.80
2018-09-23T16:07:14.364Z,8.23
2018-09-23T16:09:41.779Z,7.30
2018-09-23T16:12:09.215Z,7.10
2018-09-23T16:14:36.661Z,5.67
2018-09-23T16:17:04.090Z,5.60
2018-09-23T16:19:31.541Z,6.63
2018-09-23T16:21:58.976Z,7.37
2018-09-23T16:24:26.421Z,5.90
2018-09-23T16:26:53.885Z,6.50
2018-09-23T16:29:21.325Z,6.50
2018-09-23T16:31:48.754Z,9.33
2018-09-23T16:34:16.191Z,5.00
2018-09-23T16:36:43.602Z,5.77
2018-09-23T16:39:11.063Z,6.17
2018-09-23T16:41:39.911Z,4.73
2018-09-23T16:44:07.378Z,3.83
2018-09-23T16:46:35.187Z,4.07
2018-09-23T16:49:02.606Z,6.03
2018-09-23T16:51:30.035Z,4.87
2018-09-23T16:53:57.481Z,6.03
2018-09-23T16:56:24.889Z,3.57
2018-09-23T16:58:52.316Z,4.60
2018-09-23T17:01:19.737Z,5.27
2018-09-23T17:03:47.178Z,6.03
2018-09-23T17:06:14.599Z,5.77
2018-09-23T17:08:42.048Z,3.83
2018-09-23T17:11:09.502Z,4.73
2018-09-23T17:13:36.921Z,3.93
2018-09-23T17:16:04.326Z,4.57
2018-09-23T17:18:31.787Z,4.30
2018-09-23T17:20:59.209Z,4.77
2018-09-23T17:23:26.688Z,6.23
2018-09-23T17:25:54.120Z,3.70
2018-09-23T17:28:21.715Z,4.37
2018-09-23T17:30:48.969Z,7.30
2018-09-23T17:33:16.389Z,4.97
2018-09-23T17:35:43.854Z,7.17
2018-09-23T17:38:11.316Z,3.57
2018-09-23T17:40:38.780Z,4.90
2018-09-23T17:43:06.199Z,4.80
2018-09-23T17:45:33.658Z,4.70
2018-09-23T17:48:01.102Z,5.07
2018-09-23T17:50:28.533Z,3.23
2018-09-23T17:52:56.017Z,8.80
2018-09-23T17:55:23.458Z,3.93
2018-09-23T17:57:50.937Z,4.57
2018-09-23T18:00:18.398Z,4.47
2018-09-23T18:02:45.820Z,4.00
2018-09-23T18:05:13.249Z,4.40
2018-09-23T18:07:40.664Z,4.33
2018-09-23T18:10:09.621Z,5.93
2018-09-23T18:12:37.041Z,2.90
2018-09-23T18:15:04.513Z,6.00
2018-09-23T18:17:31.911Z,5.17
2018-09-23T18:19:59.352Z,3.60
2018-09-23T18:22:26.905Z,5.47
2018-09-23T18:24:54.305Z,4.83
2018-09-23T18:27:21.706Z,6.73
2018-09-23T18:29:49.174Z,6.20
2018-09-23T18:32:16.640Z,5.83
2018-09-23T18:34:44.064Z,6.07
2018-09-23T18:37:11.523Z,5.20
2018-09-23T18:39:38.931Z,4.57
2018-09-23T18:42:06.423Z,5.53
2018-09-23T18:44:33.858Z,6.10
2018-09-23T18:47:01.297Z,5.57
2018-09-23T18:49:28.722Z,3.87
2018-09-23T18:51:56.143Z,6.17
2018-09-23T18:54:23.578Z,6.43
2018-09-23T18:56:50.991Z,6.07
2018-09-23T18:59:18.489Z,6.67
2018-09-23T19:01:45.892Z,6.20
2018-09-23T19:04:13.299Z,10.47
2018-09-23T19:06:40.761Z,7.70
2018-09-23T19:09:08.208Z,9.90
2018-09-23T19:11:35.694Z,9.50
2018-09-23T19:14:03.057Z,15.87
2018-09-23T19:16:30.502Z,13.23
2018-09-23T19:18:58.008Z,14.23
2018-09-23T19:21:25.534Z,11.70
2018-09-23T19:23:52.980Z,14.87
2018-09-23T19:26:20.418Z,13.53
2018-09-23T19:28:47.841Z,10.50
2018-09-23T19:31:15.365Z,10.73
2018-09-23T19:33:42.787Z,12.97
2018-09-23T19:36:10.282Z,17.70
2018-09-23T19:38:37.693Z,16.40
2018-09-23T19:41:05.142Z,18.37
2018-09-23T19:43:32.608Z,16.67
2018-09-23T19:46:00.024Z,17.77
2018-09-23T19:48:27.583Z,13.93
2018-09-23T19:50:55.003Z,13.80
2018-09-23T19:53:22.461Z,14.57
2018-09-23T19:55:49.875Z,14.50
2018-09-23T19:58:17.323Z,16.57
2018-09-23T20:00:44.735Z,11.97
2018-09-23T20:03:12.172Z,12.70
2018-09-23T20:05:39.604Z,12.80
2018-09-23T20:08:07.115Z,12.83
2018-09-23T20:10:34.517Z,10.70
2018-09-23T20:13:01.985Z,10.83
2018-09-23T20:15:29.457Z,12.20
2018-09-23T20:17:56.866Z,14.27
2018-09-23T20:20:24.374Z,15.27
2018-09-23T20:22:51.832Z,12.63
2018-09-23T20:25:19.277Z,14.80
2018-09-23T20:27:46.720Z,14.57
2018-09-23T20:30:14.218Z,13.97
2018-09-23T20:32:41.665Z,11.77
2018-09-23T20:35:09.101Z,13.30
2018-09-23T20:37:36.542Z,13.90
2018-09-23T20:40:03.962Z,11.23
2018-09-23T20:42:31.434Z,8.23
2018-09-23T20:44:58.860Z,9.37
2018-09-23T20:47:26.289Z,11.63
2018-09-23T20:49:53.787Z,8.83
2018-09-23T20:52:21.219Z,10.10
2018-09-23T20:54:48.678Z,9.00
2018-09-23T20:57:16.150Z,8.73
2018-09-23T20:59:43.560Z,7.47
2018-09-23T21:02:11.036Z,7.80
2018-09-23T21:04:38.434Z,9.47
2018-09-23T21:07:05.896Z,7.40
2018-09-23T21:09:33.329Z,10.10
2018-09-23T21:12:00.750Z,7.63
2018-09-23T21:14:28.267Z,12.27
2018-09-23T21:16:55.770Z,8.43
2018-09-23T21:19:23.199Z,7.37
2018-09-23T21:21:50.604Z,7.70
2018-09-23T21:24:18.060Z,10.97
2018-09-23T21:26:45.517Z,12.67
2018-09-23T21:29:12.988Z,9.13
2018-09-23T21:31:40.388Z,9.77
2018-09-23T21:34:07.829Z,8.97
2018-09-23T21:36:37.314Z,9.60
2018-09-23T21:39:04.762Z,12.63
2018-09-23T21:41:32.164Z,13.93
2018-09-23T21:43:59.604Z,15.60
2018-09-23T21:46:27.096Z,17.07
2018-09-23T21:48:54.536Z,14.80
2018-09-23T21:51:21.945Z,16.03
2018-09-23T21:53:49.375Z,18.70
2018-09-23T21:56:16.789Z,18.30
2018-09-23T21:58:44.217Z,14.30
2018-09-23T22:01:11.655Z,18.87
2018-09-23T22:03:39.092Z,16.17
2018-09-23T22:06:06.526Z,19.90
2018-09-23T22:08:33.993Z,17.37
2018-09-23T22:11:01.409Z,18.73
2018-09-23T22:13:28.953Z,20.83
2018-09-23T22:15:56.364Z,18.80
2018-09-23T22:18:23.791Z,19.67
2018-09-23T22:20:51.250Z,19.27
2018-09-23T22:23:18.690Z,23.50
2018-09-23T22:25:46.158Z,21.13
2018-09-23T22:28:13.569Z,24.20
2018-09-23T22:30:40.997Z,20.83
2018-09-23T22:33:08.429Z,23.83
2018-09-23T22:35:35.849Z,19.03
2018-09-23T22:38:03.264Z,21.17
2018-09-23T22:40:30.706Z,21.73
2018-09-23T22:42:58.130Z,25.07
2018-09-23T22:45:25.582Z,22.23
2018-09-23T22:47:52.989Z,25.30
2018-09-23T22:50:20.426Z,22.83
2018-09-23T22:52:47.852Z,22.17
2018-09-23T22:55:15.274Z,25.70
2018-09-23T22:57:42.721Z,22.07
2018-09-23T23:00:10.142Z,18.27
2018-09-23T23:03:33.685Z,24.30
2018-09-23T23:05:14.026Z,24.53
2018-09-23T23:07:41.514Z,22.27
2018-09-23T23:10:08.936Z,17.93
2018-09-23T23:12:36.359Z,24.47
2018-09-23T23:15:03.808Z,22.87
2018-09-23T23:17:31.306Z,18.87
2018-09-23T23:19:58.727Z,24.57
2018-09-23T23:22:26.155Z,22.33
2018-09-23T23:24:53.564Z,26.37
2018-09-23T23:27:21.001Z,18.47
2018-09-23T23:29:48.417Z,19.80
2018-09-23T23:32:15.860Z,22.77
2018-09-23T23:34:43.272Z,22.00
2018-09-23T23:37:10.705Z,19.93
2018-09-23T23:39:38.117Z,21.40
2018-09-23T23:42:05.548Z,13.60
2018-09-23T23:44:32.967Z,14.17
2018-09-23T23:47:00.415Z,13.07
2018-09-23T23:49:27.833Z,14.23
2018-09-23T23:51:55.291Z,12.07
2018-09-23T23:54:22.722Z,17.87
2018-09-23T23:56:50.148Z,24.27
2018-09-23T23:59:17.572Z,18.80
